TimeCAT,TemperatureF,Dew PointF,Humidity,Sea Level PressureIn,VisibilityMPH,Wind Direction,Wind SpeedMPH,Gust SpeedMPH,PrecipitationIn,Events,Conditions,WindDirDegrees,DateUTC
12:00 AM,59.0,51.8,77,30.12,-9999.0,East,5.8,-,N/A,,Clear,90,2013-11-25 22:00:00
2:00 AM,54,52,90,,19,East,5.8,,,,Scattered Clouds,90,2013-11-26 00:00:00
2:00 AM,53.6,51.8,94,30.09,-9999.0,East,5.8,-,N/A,,Clear,90,2013-11-26 00:00:00
5:00 AM,52,51,95,,19,SSE,3.5,,,,Clear,160,2013-11-26 03:00:00
5:00 AM,51.8,51.8,100,30.15,-9999.0,SSE,3.5,-,N/A,,Clear,160,2013-11-26 03:00:00
6:00 AM,55.4,53.6,94,30.15,-9999.0,ESE,3.5,-,N/A,,Clear,120,2013-11-26 04:00:00
7:00 AM,62.6,55.4,77,30.15,-9999.0,NE,4.6,-,N/A,,Clear,50,2013-11-26 05:00:00
8:00 AM,67,54,52,,19,ENE,3.5,,,,,70,2013-11-26 06:00:00
8:00 AM,66.2,53.6,64,30.15,-9999.0,Variable,3.5,-,N/A,,Clear,0,2013-11-26 06:00:00
9:00 AM,69.8,53.6,56,30.15,6.2,Variable,3.5,-,N/A,,Partly Cloudy,0,2013-11-26 07:00:00
10:00 AM,71.6,51.8,50,30.15,6.2,WNW,8.1,-,N/A,,Scattered Clouds,300,2013-11-26 08:00:00
11:00 AM,74,51,33,,19,West,10.4,,,,Partly Cloudy,270,2013-11-26 09:00:00
11:00 AM,75.2,51.8,44,30.15,-9999.0,West,10.4,-,N/A,,Clear,270,2013-11-26 09:00:00
12:00 PM,75.2,50.0,41,30.12,-9999.0,WNW,3.5,-,N/A,,Clear,300,2013-11-26 10:00:00
1:00 PM,77.0,48.2,36,30.09,-9999.0,Variable,6.9,-,N/A,,Clear,0,2013-11-26 11:00:00
2:00 PM,76,47,25,,19,SW,11.2,,,,Mostly Cloudy,230,2013-11-26 12:00:00
2:00 PM,77.0,46.4,34,30.06,-9999.0,SW,5.8,-,N/A,,Clear,230,2013-11-26 12:00:00
3:00 PM,77.0,48.2,36,30.04,-9999.0,SW,6.9,-,N/A,,Clear,220,2013-11-26 13:00:00
4:00 PM,78.8,48.2,34,30.04,-9999.0,Variable,3.5,-,N/A,,Clear,0,2013-11-26 14:00:00
5:00 PM,78,45,21,,19,North,3.5,,,,Scattered Clouds,350,2013-11-26 15:00:00
5:00 PM,78.8,44.6,30,30.04,-9999.0,Variable,3.5,-,N/A,,Clear,0,2013-11-26 15:00:00
6:00 PM,77.0,48.2,36,30.04,-9999.0,Variable,1.2,-,N/A,,Clear,0,2013-11-26 16:00:00
7:00 PM,71.6,46.4,41,30.06,-9999.0,SSE,5.8,-,N/A,,Clear,150,2013-11-26 17:00:00
8:00 PM,67,44,33,,19,ESE,6.9,,,,Scattered Clouds,120,2013-11-26 18:00:00
8:00 PM,68.0,44.6,43,30.09,-9999.0,ESE,6.9,-,N/A,,Clear,120,2013-11-26 18:00:00
9:00 PM,66.2,44.6,46,30.09,-9999.0,ESE,5.8,-,N/A,,Clear,110,2013-11-26 19:00:00
10:00 PM,64.4,44.6,49,30.12,-9999.0,East,6.9,-,N/A,,Clear,100,2013-11-26 20:00:00
11:00 PM,62.6,44.6,52,30.12,-9999.0,East,8.1,-,N/A,,Clear,90,2013-11-26 21:00:00